Time;durP1;ratioP1;P1;durP2;ratioP2;P2;SDS_P1;SDS_P2;PMS_P1;PMS_P2;Temp;Humidity;BMP_temperature;BMP_pressure;BME280_temperature;BME280_humidity;BME280_pressure;Samples;Min_cycle;Max_cycle;Signal;HPM_P1;HPM_P2
2023/10/09 00:00:50;;;;;;;13.87;7.63;;;17.60;98.10;;;;;;5073495;28;20464;-56
2023/10/09 00:03:17;;;;;;;13.33;7.50;;;17.60;98.10;;;;;;5073419;28;20429;-56
2023/10/09 00:05:46;;;;;;;13.30;7.80;;;17.60;98.00;;;;;;5073374;28;20447;-56
2023/10/09 00:08:21;;;;;;;11.33;7.27;;;17.60;98.00;;;;;;5073305;28;20440;-56
2023/10/09 00:10:52;;;;;;;12.60;7.17;;;17.70;98.00;;;;;;5073340;28;20487;-56
2023/10/09 00:13:19;;;;;;;8.47;6.73;;;17.70;98.10;;;;;;5073113;28;20417;-56
2023/10/09 00:15:52;;;;;;;13.70;7.23;;;17.70;98.00;;;;;;5073233;28;20488;-56
2023/10/09 00:18:28;;;;;;;8.67;6.00;;;17.70;98.00;;;;;;5073438;28;20494;-56
2023/10/09 00:20:55;;;;;;;10.20;7.50;;;17.70;97.90;;;;;;5072948;28;20468;-56
2023/10/09 00:23:25;;;;;;;11.57;8.00;;;17.70;97.90;;;;;;5073208;28;20440;-56
2023/10/09 00:26:08;;;;;;;8.77;7.00;;;17.70;97.80;;;;;;5074197;28;20421;-56
2023/10/09 00:28:36;;;;;;;9.10;6.27;;;17.70;97.90;;;;;;5077374;28;20429;-56
2023/10/09 00:31:07;;;;;;;8.60;6.07;;;17.70;97.70;;;;;;5077167;28;20505;-56
2023/10/09 00:33:34;;;;;;;8.00;6.63;;;17.80;97.70;;;;;;5077401;28;20482;-56
2023/10/09 00:36:09;;;;;;;12.17;7.50;;;17.80;97.70;;;;;;5077170;28;20484;-56
2023/10/09 00:38:39;;;;;;;9.13;6.70;;;17.80;97.50;;;;;;5077275;28;20428;-56
2023/10/09 00:41:11;;;;;;;8.37;6.77;;;17.70;97.40;;;;;;5076982;28;20848;-55
2023/10/09 00:43:42;;;;;;;9.17;7.23;;;17.70;97.40;;;;;;5077518;28;20429;-56
2023/10/09 00:46:23;;;;;;;9.23;6.47;;;17.70;97.40;;;;;;5077077;28;20425;-56
2023/10/09 00:48:52;;;;;;;10.50;6.37;;;17.80;97.40;;;;;;5077066;28;20482;-56
2023/10/09 00:51:22;;;;;;;10.60;6.87;;;17.80;97.40;;;;;;5076480;28;20989;-56
2023/10/09 00:53:51;;;;;;;9.73;6.23;;;17.80;97.30;;;;;;5076842;28;20506;-56
2023/10/09 00:56:28;;;;;;;9.37;6.87;;;17.80;97.30;;;;;;5076730;28;20508;-56
2023/10/09 00:59:00;;;;;;;9.67;5.93;;;17.80;97.30;;;;;;5076443;28;20925;-56
2023/10/09 01:01:34;;;;;;;10.30;7.23;;;17.70;97.30;;;;;;5076595;28;20499;-56
2023/10/09 01:04:06;;;;;;;7.20;5.50;;;17.80;97.50;;;;;;5076767;28;20858;-56
2023/10/09 01:06:34;;;;;;;6.70;5.83;;;17.70;97.50;;;;;;5076598;28;20432;-56
2023/10/09 01:09:09;;;;;;;8.40;6.20;;;17.70;97.60;;;;;;5076275;28;20468;-56
2023/10/09 01:11:47;;;;;;;7.33;5.50;;;17.70;97.50;;;;;;5076508;28;20428;-56
2023/10/09 01:14:14;;;;;;;10.77;6.80;;;17.80;97.60;;;;;;5076276;28;20515;-56
2023/10/09 01:16:47;;;;;;;8.27;6.20;;;17.80;97.50;;;;;;5076359;28;20924;-56
2023/10/09 01:19:23;;;;;;;9.57;6.10;;;17.80;97.60;;;;;;5076403;28;20421;-56
2023/10/09 01:21:50;;;;;;;8.63;6.13;;;17.80;97.70;;;;;;5076482;28;20452;-56
2023/10/09 01:24:19;;;;;;;8.00;7.00;;;17.80;97.80;;;;;;5076425;28;20444;-56
2023/10/09 01:26:48;;;;;;;10.10;6.73;;;17.80;97.80;;;;;;5076071;28;20448;-56
2023/10/09 01:29:18;;;;;;;8.33;6.63;;;17.80;97.80;;;;;;5075938;28;20531;-56
2023/10/09 01:31:51;;;;;;;9.17;6.90;;;17.80;97.80;;;;;;5076177;28;20494;-56
2023/10/09 01:34:23;;;;;;;10.00;7.13;;;17.80;97.90;;;;;;5076366;28;20498;-56
2023/10/09 01:36:55;;;;;;;10.47;7.23;;;17.80;97.90;;;;;;5075672;28;20504;-56
2023/10/09 01:39:23;;;;;;;9.23;6.37;;;17.70;98.00;;;;;;5075560;28;20452;-56
2023/10/09 01:41:58;;;;;;;8.37;5.60;;;17.80;98.10;;;;;;5076264;28;20460;-56
2023/10/09 01:44:27;;;;;;;9.57;6.93;;;17.70;98.20;;;;;;5075957;28;20428;-56
2023/10/09 01:46:55;;;;;;;7.80;6.17;;;17.70;98.30;;;;;;5076041;28;20525;-56
2023/10/09 01:49:29;;;;;;;10.30;6.30;;;17.70;98.30;;;;;;5075574;28;20961;-56
2023/10/09 01:51:58;;;;;;;8.60;5.97;;;17.70;98.40;;;;;;5076193;28;20425;-56
2023/10/09 01:54:36;;;;;;;9.23;6.97;;;17.70;98.40;;;;;;5075756;28;20451;-56
2023/10/09 01:57:05;;;;;;;7.00;6.30;;;17.70;98.40;;;;;;5076173;28;20464;-56
2023/10/09 01:59:32;;;;;;;10.73;6.80;;;17.70;98.80;;;;;;5075653;28;20464;-56
2023/10/09 02:02:01;;;;;;;8.80;6.00;;;17.70;98.70;;;;;;5075805;28;20441;-56
2023/10/09 02:04:28;;;;;;;8.17;5.87;;;17.60;98.80;;;;;;5075341;28;20955;-56
2023/10/09 02:06:55;;;;;;;9.90;6.30;;;17.60;98.90;;;;;;5075643;28;20539;-56
2023/10/09 02:09:30;;;;;;;12.90;7.20;;;17.60;99.00;;;;;;5075215;28;20448;-56
2023/10/09 02:11:58;;;;;;;9.90;6.63;;;17.70;99.00;;;;;;5075444;28;20878;-56
2023/10/09 02:14:25;;;;;;;10.80;6.53;;;17.70;99.00;;;;;;5075236;28;20947;-56
2023/10/09 02:19:34;;;;;;;10.63;6.20;;;17.70;98.90;;;;;;5072709;28;20449;-56
2023/10/09 02:22:11;;;;;;;7.97;6.10;;;17.70;98.90;;;;;;5075420;28;20495;-56
2023/10/09 02:24:58;;;;;;;10.10;6.30;;;17.70;98.80;;;;;;5075238;28;20891;-56
2023/10/09 02:27:47;;;;;;;7.60;6.40;;;17.80;98.80;;;;;;5075721;28;20424;-56
2023/10/09 02:30:19;;;;;;;9.90;6.37;;;17.80;98.80;;;;;;5075352;28;20464;-56
2023/10/09 02:32:49;;;;;;;10.17;6.40;;;17.80;98.70;;;;;;5075312;28;20502;-56
2023/10/09 02:35:30;;;;;;;12.97;6.83;;;17.80;98.60;;;;;;5086357;28;20969;-56
2023/10/09 02:37:58;;;;;;;8.47;5.90;;;17.80;98.60;;;;;;5095035;28;20804;-56
2023/10/09 02:40:32;;;;;;;7.93;6.40;;;17.80;98.80;;;;;;5095023;28;20463;-57
2023/10/09 02:43:00;;;;;;;7.90;6.90;;;17.80;98.70;;;;;;5095368;28;20523;-56
2023/10/09 02:45:32;;;;;;;11.03;6.60;;;17.80;98.70;;;;;;5094998;28;20436;-56
2023/10/09 02:48:00;;;;;;;10.97;6.63;;;17.80;98.80;;;;;;5094687;28;20949;-56
2023/10/09 02:50:28;;;;;;;7.30;6.53;;;17.70;98.80;;;;;;5093800;28;20464;-56
2023/10/09 02:53:00;;;;;;;8.27;6.73;;;17.80;98.90;;;;;;5094565;28;20447;-56
2023/10/09 02:55:27;;;;;;;10.70;7.47;;;17.80;98.90;;;;;;5094738;28;20434;-56
2023/10/09 02:58:05;;;;;;;9.30;6.10;;;17.80;98.90;;;;;;5094636;28;20444;-56
2023/10/09 03:00:36;;;;;;;8.30;6.90;;;17.80;99.00;;;;;;5094613;28;20460;-56
2023/10/09 03:03:06;;;;;;;9.53;6.90;;;17.80;98.90;;;;;;5094669;28;20424;-56
2023/10/09 03:05:33;;;;;;;8.43;7.27;;;17.80;98.90;;;;;;5094607;28;20424;-57
2023/10/09 03:08:00;;;;;;;9.43;7.37;;;17.80;99.00;;;;;;5095589;28;20446;-56
2023/10/09 03:10:27;;;;;;;9.57;6.60;;;17.80;98.90;;;;;;5093977;28;20562;-56
2023/10/09 03:12:54;;;;;;;9.43;8.00;;;17.80;98.90;;;;;;5094467;28;20436;-57
2023/10/09 03:15:21;;;;;;;10.83;7.00;;;17.80;98.90;;;;;;5094163;28;20443;-56
2023/10/09 03:17:49;;;;;;;9.40;7.37;;;17.80;98.90;;;;;;5094029;28;20455;-56
2023/10/09 03:20:17;;;;;;;11.70;7.63;;;17.80;99.00;;;;;;5094014;28;20980;-56
2023/10/09 03:22:45;;;;;;;9.83;7.50;;;17.70;98.80;;;;;;5094235;28;20482;-56
2023/10/09 03:25:12;;;;;;;9.87;7.20;;;17.70;98.90;;;;;;5094357;28;20493;-56
2023/10/09 03:27:41;;;;;;;12.10;8.00;;;17.80;98.90;;;;;;5094209;28;20436;-56
2023/10/09 03:30:16;;;;;;;12.73;7.40;;;17.80;99.10;;;;;;5094022;28;20467;-56
2023/10/09 03:32:43;;;;;;;8.63;7.50;;;17.80;98.60;;;;;;5094117;28;20423;-57
2023/10/09 03:35:16;;;;;;;11.83;7.80;;;17.80;98.50;;;;;;5094085;28;20538;-56
2023/10/09 03:37:43;;;;;;;13.33;7.50;;;17.80;98.50;;;;;;5093996;28;20550;-56
2023/10/09 03:40:17;;;;;;;8.67;6.60;;;17.90;98.50;;;;;;5093517;28;20505;-56
2023/10/09 03:42:44;;;;;;;7.70;6.77;;;17.90;98.30;;;;;;5093982;28;20456;-56
2023/10/09 03:45:12;;;;;;;12.90;7.90;;;17.80;98.30;;;;;;5093787;28;20447;-56
2023/10/09 03:47:42;;;;;;;12.77;7.60;;;17.90;98.30;;;;;;5093961;28;20442;-57
2023/10/09 03:50:24;;;;;;;9.17;7.17;;;17.90;98.20;;;;;;5093813;28;20547;-56
2023/10/09 03:52:52;;;;;;;11.23;7.17;;;17.90;98.40;;;;;;5093802;28;20439;-56
2023/10/09 03:55:21;;;;;;;9.53;6.90;;;17.90;98.40;;;;;;5093428;28;20937;-56
2023/10/09 03:57:48;;;;;;;11.00;7.57;;;17.90;98.40;;;;;;5093571;28;20479;-56
2023/10/09 04:00:22;;;;;;;11.60;7.40;;;17.90;98.50;;;;;;5093236;28;20493;-56
2023/10/09 04:02:49;;;;;;;10.70;7.77;;;17.90;98.50;;;;;;5093645;28;20469;-56
2023/10/09 04:05:17;;;;;;;13.60;7.60;;;17.90;98.60;;;;;;5093293;28;20444;-56
2023/10/09 04:07:44;;;;;;;10.60;7.73;;;17.90;98.40;;;;;;5093236;28;20965;-56
2023/10/09 04:10:32;;;;;;;11.30;7.80;;;17.80;98.80;;;;;;5092934;28;21001;-56
2023/10/09 04:13:02;;;;;;;13.03;7.83;;;17.70;98.50;;;;;;5093410;28;20428;-56
2023/10/09 04:15:35;;;;;;;12.30;7.83;;;17.70;98.80;;;;;;5093475;28;20500;-57
2023/10/09 04:18:03;;;;;;;12.10;7.73;;;17.70;98.80;;;;;;5093527;28;20495;-57
2023/10/09 04:21:08;;;;;;;11.07;8.13;;;17.70;98.70;;;;;;5093338;28;20543;-56
2023/10/09 04:23:36;;;;;;;12.10;7.53;;;17.70;98.80;;;;;;5092921;28;20896;-56
2023/10/09 04:26:14;;;;;;;8.07;6.73;;;17.70;98.70;;;;;;5093439;28;20435;-57
2023/10/09 04:28:42;;;;;;;10.40;7.30;;;17.70;98.80;;;;;;5093419;28;20424;-57
2023/10/09 04:31:09;;;;;;;10.23;7.60;;;17.70;98.70;;;;;;5093128;28;20460;-57
2023/10/09 04:33:42;;;;;;;13.47;7.90;;;17.80;98.70;;;;;;5093318;28;20436;-57
2023/10/09 04:36:21;;;;;;;13.27;7.70;;;17.70;98.50;;;;;;5093106;28;20994;-57
2023/10/09 04:38:55;;;;;;;12.20;8.27;;;17.60;98.60;;;;;;5093774;28;20435;-57
2023/10/09 04:41:32;;;;;;;12.70;8.40;;;17.70;98.80;;;;;;5093877;28;20470;-57
2023/10/09 04:44:18;;;;;;;13.40;7.80;;;17.70;98.70;;;;;;5093204;28;20913;-56
2023/10/09 04:47:17;;;;;;;11.37;7.90;;;17.80;98.80;;;;;;5093768;28;20428;-57
2023/10/09 04:49:45;;;;;;;11.80;7.50;;;17.70;98.60;;;;;;5092991;28;20464;-57
2023/10/09 04:52:18;;;;;;;10.83;7.00;;;17.70;98.70;;;;;;5093117;28;20434;-56
2023/10/09 04:55:04;;;;;;;11.67;8.20;;;17.70;98.70;;;;;;5092864;28;20781;-57
2023/10/09 04:57:38;;;;;;;14.60;8.07;;;17.70;98.50;;;;;;5093256;28;20468;-57
2023/10/09 05:00:22;;;;;;;10.27;6.80;;;17.60;98.40;;;;;;5093102;28;20520;-57
2023/10/09 05:02:54;;;;;;;10.80;7.43;;;17.60;98.50;;;;;;5093168;28;20420;-56
2023/10/09 05:05:47;;;;;;;10.10;7.73;;;17.60;98.40;;;;;;5093111;28;20434;-57
2023/10/09 05:08:19;;;;;;;13.73;8.40;;;17.70;98.40;;;;;;5092939;28;20796;-57
2023/10/09 05:11:14;;;;;;;12.63;8.20;;;17.70;98.30;;;;;;5092557;28;20463;-56
2023/10/09 05:13:42;;;;;;;10.87;7.47;;;17.70;98.30;;;;;;5094704;28;20493;-57
2023/10/09 05:16:15;;;;;;;10.23;7.10;;;17.60;98.20;;;;;;5096404;28;20459;-57
2023/10/09 05:18:44;;;;;;;11.00;7.50;;;17.60;98.30;;;;;;5096484;28;20962;-57
2023/10/09 05:24:16;;;;;;;12.27;7.20;;;17.70;98.00;;;;;;5096272;28;20438;-57
2023/10/09 05:26:50;;;;;;;10.60;8.03;;;17.60;97.90;;;;;;5096141;28;21026;-57
2023/10/09 05:29:34;;;;;;;14.03;7.77;;;17.60;97.80;;;;;;5096438;28;20496;-57
2023/10/09 05:32:03;;;;;;;10.53;7.73;;;17.70;98.10;;;;;;5096412;28;20427;-57
2023/10/09 05:34:34;;;;;;;12.80;8.00;;;17.60;97.80;;;;;;5090187;28;20539;-56
2023/10/09 05:37:16;;;;;;;11.43;7.50;;;17.70;97.80;;;;;;5075993;28;20511;-57
2023/10/09 05:39:58;;;;;;;13.53;8.00;;;17.60;97.60;;;;;;5075704;28;20993;-57
2023/10/09 05:42:42;;;;;;;9.23;7.80;;;17.60;97.80;;;;;;5076029;28;20433;-57
2023/10/09 05:47:57;;;;;;;17.50;8.40;;;17.70;97.70;;;;;;5075929;28;20471;-57
2023/10/09 05:50:36;;;;;;;12.83;7.87;;;17.70;97.60;;;;;;5075683;28;21073;-57
2023/10/09 05:53:09;;;;;;;12.43;8.33;;;17.70;97.60;;;;;;5075786;28;20425;-57
2023/10/09 06:03:49;;;;;;;11.23;7.77;;;17.70;97.80;;;;;;5075233;28;20408;-57
2023/10/09 06:06:32;;;;;;;9.27;7.37;;;17.70;97.80;;;;;;5075479;28;20532;-57
2023/10/09 06:11:55;;;;;;;10.07;7.27;;;17.70;97.90;;;;;;5050731;28;20791;-57
2023/10/09 06:14:25;;;;;;;12.53;8.43;;;17.70;98.10;;;;;;5075068;28;20429;-57
2023/10/09 06:17:22;;;;;;;14.53;7.90;;;17.70;98.00;;;;;;5075530;28;20484;-57
2023/10/09 06:19:49;;;;;;;12.57;8.97;;;17.70;97.90;;;;;;5075193;28;20460;-57
2023/10/09 06:25:08;;;;;;;13.00;8.07;;;17.70;97.70;;;;;;5074433;28;20509;-57
2023/10/09 06:27:57;;;;;;;13.17;8.40;;;17.80;97.90;;;;;;5075694;28;20479;-57
2023/10/09 06:30:26;;;;;;;11.10;7.60;;;17.80;98.30;;;;;;5074878;28;20456;-57
2023/10/09 06:33:18;;;;;;;11.20;7.93;;;17.80;97.80;;;;;;5074808;28;20939;-57
2023/10/09 06:35:53;;;;;;;9.23;8.00;;;17.80;98.00;;;;;;5074951;28;20792;-57
2023/10/09 06:38:22;;;;;;;9.63;7.50;;;17.90;97.70;;;;;;5075307;28;20464;-57
2023/10/09 06:43:42;;;;;;;11.53;7.40;;;18.00;97.80;;;;;;5074754;28;20466;-56
2023/10/09 06:49:28;;;;;;;12.00;8.03;;;18.00;97.70;;;;;;5074475;28;20899;-57
2023/10/09 06:51:55;;;;;;;12.80;8.43;;;18.10;97.70;;;;;;5074175;28;20472;-57
2023/10/09 06:54:25;;;;;;;10.83;8.60;;;18.00;97.30;;;;;;5074659;28;20430;-57
2023/10/09 06:57:13;;;;;;;11.83;9.13;;;18.10;97.50;;;;;;5074682;28;20472;-57
2023/10/09 06:59:43;;;;;;;12.60;8.50;;;18.10;97.60;;;;;;5074384;28;20825;-57
2023/10/09 07:02:26;;;;;;;12.97;8.90;;;18.20;97.60;;;;;;5074414;28;20502;-57
2023/10/09 07:04:55;;;;;;;17.53;9.13;;;18.20;97.40;;;;;;5074375;28;20901;-57
2023/10/09 07:07:24;;;;;;;14.03;8.17;;;18.20;97.50;;;;;;5074313;28;20449;-57
2023/10/09 07:12:54;;;;;;;11.70;8.47;;;18.30;97.00;;;;;;5032571;28;20465;-57
2023/10/09 07:18:23;;;;;;;12.47;9.23;;;18.40;96.70;;;;;;5056389;28;20492;-57
2023/10/09 07:21:01;;;;;;;16.57;8.90;;;18.40;96.70;;;;;;5073993;28;20526;-57
2023/10/09 07:23:32;;;;;;;10.47;9.37;;;18.40;96.80;;;;;;5073870;28;20436;-57
2023/10/09 07:26:36;;;;;;;12.40;9.30;;;18.50;96.90;;;;;;5074030;28;20433;-57
2023/10/09 07:29:16;;;;;;;11.97;9.60;;;18.50;96.40;;;;;;5074814;28;20435;-57
2023/10/09 07:31:45;;;;;;;12.23;9.40;;;18.50;96.10;;;;;;5073809;28;20436;-57
2023/10/09 07:37:03;;;;;;;12.40;8.13;;;18.60;96.00;;;;;;5073284;28;20974;-57
2023/10/09 07:39:34;;;;;;;14.77;9.80;;;18.60;96.00;;;;;;5073569;28;20469;-57
2023/10/09 07:42:15;;;;;;;15.43;10.67;;;18.60;95.70;;;;;;5073274;28;20425;-57
2023/10/09 07:44:52;;;;;;;16.50;10.50;;;18.70;95.50;;;;;;5073501;28;20424;-57
2023/10/09 07:47:22;;;;;;;11.97;9.73;;;18.70;96.00;;;;;;5073274;28;20425;-57
2023/10/09 07:49:52;;;;;;;12.97;9.23;;;18.80;95.80;;;;;;5073478;28;20465;-57
2023/10/09 07:52:22;;;;;;;11.33;9.13;;;18.70;95.70;;;;;;5073451;28;20432;-57
2023/10/09 07:54:52;;;;;;;13.07;9.87;;;18.80;95.60;;;;;;5073274;28;20497;-57
2023/10/09 07:57:28;;;;;;;16.20;9.50;;;18.80;95.60;;;;;;5073424;28;20525;-57
2023/10/09 08:00:00;;;;;;;13.20;8.23;;;18.90;95.40;;;;;;5075437;28;20313;-57
2023/10/09 08:02:32;;;;;;;15.07;8.97;;;18.90;95.40;;;;;;5074128;28;20440;-57
2023/10/09 08:05:04;;;;;;;15.30;8.13;;;19.00;95.30;;;;;;5074144;28;20425;-57
2023/10/09 08:07:41;;;;;;;11.33;9.40;;;19.00;95.10;;;;;;5074105;28;20429;-57
2023/10/09 08:12:59;;;;;;;17.90;9.43;;;19.10;94.90;;;;;;5073232;28;20458;-57
2023/10/09 08:15:34;;;;;;;13.40;8.50;;;19.20;94.90;;;;;;5073651;28;20512;-57
2023/10/09 08:18:09;;;;;;;16.53;10.27;;;19.20;94.90;;;;;;5072981;28;20837;-57
2023/10/09 08:20:51;;;;;;;14.10;9.37;;;19.20;94.60;;;;;;5073020;28;20496;-57
2023/10/09 08:23:28;;;;;;;12.20;8.83;;;19.30;94.80;;;;;;5073332;28;20491;-57
2023/10/09 08:26:12;;;;;;;10.47;8.20;;;19.40;94.50;;;;;;5073327;28;20447;-57
2023/10/09 08:28:42;;;;;;;9.77;8.07;;;19.40;94.30;;;;;;5073263;28;20464;-57
2023/10/09 08:31:19;;;;;;;12.33;9.10;;;19.50;94.20;;;;;;5072994;28;20808;-56
2023/10/09 08:33:45;;;;;;;11.70;8.90;;;19.50;94.40;;;;;;5072783;28;20435;-56
2023/10/09 08:36:14;;;;;;;10.20;9.10;;;19.50;94.20;;;;;;5073010;28;20452;-57
2023/10/09 08:38:42;;;;;;;12.53;9.23;;;19.60;94.30;;;;;;5073084;28;20512;-57
2023/10/09 08:41:16;;;;;;;13.30;9.07;;;19.60;94.10;;;;;;5072909;28;20469;-56
2023/10/09 08:43:50;;;;;;;12.00;8.67;;;19.70;94.10;;;;;;5073070;28;20519;-57
2023/10/09 08:46:20;;;;;;;13.07;9.07;;;19.70;93.40;;;;;;5073346;28;20429;-57
2023/10/09 08:48:47;;;;;;;16.43;9.47;;;19.70;93.60;;;;;;5077060;28;20463;-57
2023/10/09 08:51:14;;;;;;;16.47;8.53;;;19.60;93.60;;;;;;5076888;28;20465;-57
2023/10/09 08:53:45;;;;;;;15.13;8.70;;;19.60;94.00;;;;;;5076553;28;20448;-57
2023/10/09 08:56:14;;;;;;;16.57;10.23;;;19.60;93.90;;;;;;5076590;28;20877;-57
2023/10/09 08:58:41;;;;;;;16.00;8.70;;;19.60;94.10;;;;;;5076804;28;20480;-57
2023/10/09 09:01:08;;;;;;;13.17;8.83;;;19.60;94.20;;;;;;5076557;28;20460;-57
2023/10/09 09:03:43;;;;;;;14.17;8.90;;;19.50;94.40;;;;;;5076476;28;20794;-57
2023/10/09 09:06:10;;;;;;;13.20;8.97;;;19.50;94.20;;;;;;5076827;28;20444;-57
2023/10/09 09:08:37;;;;;;;17.13;8.73;;;19.60;94.30;;;;;;5076403;28;20448;-57
2023/10/09 09:11:17;;;;;;;14.80;9.20;;;19.60;94.40;;;;;;5076389;28;20505;-57
2023/10/09 09:13:49;;;;;;;12.90;8.70;;;19.70;94.70;;;;;;5076366;28;20428;-57
2023/10/09 09:16:17;;;;;;;14.47;9.67;;;19.80;94.20;;;;;;5076581;28;20428;-57
2023/10/09 09:18:56;;;;;;;17.73;9.07;;;19.80;93.80;;;;;;5076301;28;20485;-57
2023/10/09 09:21:23;;;;;;;16.10;9.37;;;19.90;93.80;;;;;;5076260;28;20514;-57
2023/10/09 09:24:03;;;;;;;13.83;10.37;;;20.00;93.80;;;;;;5076337;28;20471;-57
2023/10/09 09:26:44;;;;;;;15.33;8.60;;;20.00;93.70;;;;;;5076355;28;20516;-57
2023/10/09 09:29:12;;;;;;;16.50;8.13;;;20.10;92.90;;;;;;5076231;28;20433;-57
2023/10/09 09:31:41;;;;;;;9.90;8.00;;;20.20;92.70;;;;;;5076288;28;20485;-57
2023/10/09 09:34:16;;;;;;;13.60;8.53;;;20.20;92.50;;;;;;5076402;28;20448;-57
2023/10/09 09:37:04;;;;;;;16.10;9.40;;;20.30;92.20;;;;;;5076191;28;20539;-57
2023/10/09 09:39:33;;;;;;;16.80;8.50;;;20.30;92.30;;;;;;5076129;28;20463;-57
2023/10/09 09:42:04;;;;;;;10.60;8.07;;;20.40;92.00;;;;;;5075716;28;20523;-57
2023/10/09 09:44:33;;;;;;;12.03;8.10;;;20.50;91.60;;;;;;5075859;28;20918;-57
2023/10/09 09:47:01;;;;;;;12.10;8.33;;;20.60;91.40;;;;;;5076157;28;20449;-57
2023/10/09 09:49:31;;;;;;;11.40;8.20;;;20.60;91.40;;;;;;5075904;28;20445;-57
2023/10/09 09:51:59;;;;;;;10.30;7.17;;;20.80;91.50;;;;;;5076049;28;20488;-57
2023/10/09 09:54:28;;;;;;;18.17;8.23;;;20.90;90.60;;;;;;5075886;28;20452;-57
2023/10/09 09:56:57;;;;;;;12.50;8.10;;;21.10;90.40;;;;;;5075779;28;20453;-58
2023/10/09 09:59:28;;;;;;;10.13;7.70;;;21.20;90.20;;;;;;5074967;28;20467;-57
2023/10/09 10:01:57;;;;;;;11.07;8.40;;;21.30;89.00;;;;;;5075623;28;20463;-57
2023/10/09 10:04:27;;;;;;;11.60;7.83;;;21.40;88.70;;;;;;5075710;28;20445;-57
2023/10/09 10:06:57;;;;;;;16.07;9.57;;;21.50;88.90;;;;;;5075464;28;20448;-57
2023/10/09 10:09:40;;;;;;;12.70;7.90;;;21.50;86.10;;;;;;5075053;28;20457;-57
2023/10/09 10:12:09;;;;;;;10.13;7.03;;;21.50;87.80;;;;;;5076199;28;20433;-57
2023/10/09 10:14:58;;;;;;;12.90;7.97;;;21.50;87.20;;;;;;5074932;28;20946;-57
2023/10/09 10:17:27;;;;;;;16.27;8.03;;;21.40;86.80;;;;;;5074948;28;20900;-58
2023/10/09 10:22:50;;;;;;;12.33;7.30;;;21.50;86.60;;;;;;5075155;28;20401;-57
2023/10/09 10:25:42;;;;;;;12.77;8.33;;;21.40;87.10;;;;;;5074777;28;20484;-57
2023/10/09 10:28:42;;;;;;;11.57;6.87;;;21.40;88.00;;;;;;5075040;28;20433;-57
2023/10/09 10:31:11;;;;;;;13.87;8.27;;;21.40;87.50;;;;;;5074772;28;20464;-57
2023/10/09 10:34:10;;;;;;;10.43;7.50;;;21.40;87.60;;;;;;5074859;28;20468;-57
2023/10/09 10:36:42;;;;;;;14.93;7.63;;;21.40;86.70;;;;;;5074877;28;20436;-57
2023/10/09 10:39:11;;;;;;;17.33;7.97;;;21.40;88.40;;;;;;5074652;28;20464;-57
2023/10/09 10:41:50;;;;;;;11.60;7.20;;;21.50;88.10;;;;;;5074818;28;20449;-57
2023/10/09 10:44:41;;;;;;;12.53;7.70;;;21.50;87.40;;;;;;5074768;28;20437;-57
2023/10/09 10:47:22;;;;;;;10.20;6.63;;;21.60;86.60;;;;;;5074835;28;20429;-57
2023/10/09 10:49:50;;;;;;;18.03;8.30;;;21.70;87.70;;;;;;5074686;28;20482;-57
2023/10/09 10:52:35;;;;;;;11.03;7.47;;;21.80;87.60;;;;;;5074253;28;20448;-57
2023/10/09 10:55:17;;;;;;;13.70;7.90;;;22.00;86.90;;;;;;5074609;28;20429;-57
2023/10/09 11:03:19;;;;;;;13.00;7.13;;;22.50;85.20;;;;;;5074402;28;20530;-57
2023/10/09 11:05:50;;;;;;;11.07;8.10;;;22.60;84.10;;;;;;5074034;28;20948;-57
2023/10/09 11:08:21;;;;;;;14.13;8.70;;;22.60;83.30;;;;;;5074218;28;20417;-57
2023/10/09 11:10:50;;;;;;;11.70;8.73;;;22.70;83.00;;;;;;5073302;28;20544;-57
2023/10/09 11:13:35;;;;;;;9.37;7.50;;;22.80;82.80;;;;;;5074773;28;20556;-57
2023/10/09 11:16:24;;;;;;;14.97;8.20;;;22.90;83.10;;;;;;5074863;28;20517;-57
2023/10/09 11:18:52;;;;;;;11.07;8.53;;;22.90;81.00;;;;;;5074251;28;20978;-57
2023/10/09 11:21:31;;;;;;;10.30;7.40;;;23.00;80.70;;;;;;5074183;28;20460;-57
2023/10/09 11:23:59;;;;;;;11.03;9.07;;;23.10;81.60;;;;;;5074455;28;20428;-57
2023/10/09 11:26:27;;;;;;;11.93;8.50;;;23.20;81.30;;;;;;5073989;28;20445;-57
2023/10/09 11:29:23;;;;;;;11.57;8.97;;;23.20;80.90;;;;;;5073981;28;20489;-57
2023/10/09 11:32:00;;;;;;;15.40;9.23;;;23.30;80.60;;;;;;5073917;28;20433;-57
2023/10/09 11:34:32;;;;;;;11.70;9.23;;;23.40;81.60;;;;;;5078408;28;20957;-57
2023/10/09 11:36:59;;;;;;;12.73;8.57;;;23.30;79.10;;;;;;5094132;28;20448;-57
2023/10/09 11:39:34;;;;;;;13.23;9.30;;;23.40;79.50;;;;;;5093630;28;20919;-57
2023/10/09 11:42:04;;;;;;;12.00;9.07;;;23.50;79.50;;;;;;5093986;28;20424;-57
2023/10/09 11:44:40;;;;;;;15.87;9.57;;;23.50;79.30;;;;;;5093888;28;20929;-57
2023/10/09 11:47:24;;;;;;;11.93;8.20;;;23.60;78.10;;;;;;5093640;28;20478;-57
2023/10/09 11:50:16;;;;;;;14.03;8.77;;;23.70;79.70;;;;;;5093799;28;20494;-57
2023/10/09 11:53:08;;;;;;;12.00;9.13;;;23.70;78.00;;;;;;5093929;28;20477;-57
2023/10/09 11:55:35;;;;;;;12.10;8.70;;;23.90;77.20;;;;;;5093871;28;20456;-57
2023/10/09 11:58:04;;;;;;;15.87;8.30;;;23.90;75.50;;;;;;5093698;28;20483;-57
2023/10/09 12:00:42;;;;;;;11.00;8.20;;;23.90;74.70;;;;;;5093596;28;20473;-57
2023/10/09 12:03:09;;;;;;;15.90;9.10;;;23.90;75.60;;;;;;5093689;28;20428;-57
2023/10/09 12:05:37;;;;;;;18.30;8.50;;;23.90;75.10;;;;;;5093768;28;20444;-57
2023/10/09 12:08:08;;;;;;;10.33;7.97;;;23.90;74.70;;;;;;5093623;28;20475;-57
2023/10/09 12:10:38;;;;;;;10.83;7.30;;;24.00;75.30;;;;;;5093033;28;21005;-57
2023/10/09 12:13:04;;;;;;;9.93;7.50;;;24.20;73.40;;;;;;5093214;28;20454;-57
2023/10/09 12:15:37;;;;;;;13.37;8.43;;;24.30;71.70;;;;;;5093233;28;20942;-57
2023/10/09 12:18:06;;;;;;;13.33;8.53;;;24.40;72.20;;;;;;5093445;28;20463;-57
2023/10/09 12:20:34;;;;;;;13.63;9.17;;;24.40;72.10;;;;;;5093515;28;21023;-57
2023/10/09 12:23:05;;;;;;;10.47;8.00;;;24.40;71.10;;;;;;5093130;28;20447;-57
2023/10/09 12:25:32;;;;;;;12.97;7.87;;;24.40;71.50;;;;;;5093417;28;20425;-57
2023/10/09 12:28:01;;;;;;;11.53;7.70;;;24.40;72.50;;;;;;5093316;28;20934;-57
2023/10/09 12:30:28;;;;;;;11.47;9.13;;;24.20;72.60;;;;;;5093357;28;20468;-57
2023/10/09 12:32:57;;;;;;;9.77;7.77;;;24.00;72.70;;;;;;5093313;28;20436;-56
2023/10/09 12:35:28;;;;;;;10.27;8.00;;;24.00;74.50;;;;;;5093094;28;20824;-57
2023/10/09 12:37:56;;;;;;;10.87;8.63;;;24.00;75.90;;;;;;5093790;28;20427;-57
2023/10/09 12:40:30;;;;;;;11.10;8.57;;;24.00;74.90;;;;;;5093281;28;20813;-57
2023/10/09 12:42:58;;;;;;;11.67;7.63;;;23.90;75.10;;;;;;5093329;28;20442;-57
2023/10/09 12:45:26;;;;;;;11.00;8.33;;;24.00;75.10;;;;;;5093237;28;20444;-57
2023/10/09 12:47:58;;;;;;;11.93;8.73;;;23.90;75.00;;;;;;5093303;28;20994;-57
2023/10/09 12:50:28;;;;;;;13.47;8.53;;;23.80;75.80;;;;;;5092913;28;20973;-57
2023/10/09 12:52:56;;;;;;;15.90;8.90;;;23.80;76.20;;;;;;5092759;28;20469;-57
2023/10/09 12:55:31;;;;;;;9.30;7.50;;;23.80;76.10;;;;;;5093125;28;20463;-57
2023/10/09 12:58:06;;;;;;;11.20;7.73;;;23.70;77.10;;;;;;5092811;28;20454;-57
2023/10/09 13:00:33;;;;;;;12.13;8.07;;;23.70;77.80;;;;;;5092953;28;20500;-57
2023/10/09 13:03:01;;;;;;;14.43;8.90;;;23.60;77.60;;;;;;5092931;28;20451;-57
2023/10/09 13:05:28;;;;;;;11.00;8.13;;;23.50;78.50;;;;;;5093111;28;20447;-57
2023/10/09 13:07:56;;;;;;;11.20;7.67;;;23.50;78.30;;;;;;5093112;28;20440;-57
2023/10/09 13:10:24;;;;;;;9.50;7.93;;;23.50;79.20;;;;;;5092858;28;20549;-57
2023/10/09 13:12:55;;;;;;;8.40;7.10;;;23.50;76.90;;;;;;5093004;28;20467;-57
2023/10/09 13:15:22;;;;;;;12.57;7.37;;;23.60;77.90;;;;;;5092569;28;20771;-57
2023/10/09 13:17:48;;;;;;;13.53;8.10;;;23.50;76.20;;;;;;5092955;28;20459;-57
2023/10/09 13:20:16;;;;;;;13.67;7.90;;;23.50;77.00;;;;;;5092798;28;20479;-57
2023/10/09 13:22:44;;;;;;;9.90;7.10;;;23.50;77.20;;;;;;5092882;28;20455;-56
2023/10/09 13:25:16;;;;;;;16.10;8.13;;;23.50;77.50;;;;;;5092847;28;20501;-57
2023/10/09 13:27:50;;;;;;;8.20;7.40;;;23.60;77.30;;;;;;5092842;28;20514;-57
2023/10/09 13:30:21;;;;;;;10.13;7.20;;;23.70;78.20;;;;;;5092739;28;20545;-57
2023/10/09 13:32:49;;;;;;;8.13;7.00;;;23.70;76.10;;;;;;5092888;28;20795;-57
2023/10/09 13:35:17;;;;;;;16.73;8.00;;;23.70;75.70;;;;;;5095611;28;20860;-57
2023/10/09 13:37:47;;;;;;;11.77;7.33;;;23.70;76.90;;;;;;5096517;28;20535;-57
2023/10/09 13:40:26;;;;;;;10.23;7.60;;;23.70;77.40;;;;;;5096458;28;20491;-56
2023/10/09 13:42:58;;;;;;;7.23;6.33;;;23.70;76.50;;;;;;5096356;28;20553;-56
2023/10/09 13:45:26;;;;;;;9.33;7.47;;;23.90;76.40;;;;;;5096224;28;20428;-56
2023/10/09 13:47:54;;;;;;;11.07;7.63;;;24.10;75.40;;;;;;5096226;28;20452;-57
2023/10/09 13:50:21;;;;;;;9.07;7.17;;;24.30;73.90;;;;;;5096088;28;20900;-56
2023/10/09 13:52:48;;;;;;;9.63;6.73;;;24.70;73.70;;;;;;5096058;28;20448;-57
2023/10/09 13:55:18;;;;;;;13.10;7.63;;;24.90;72.10;;;;;;5096262;28;20448;-57